Time;durP1;ratioP1;P1;durP2;ratioP2;P2;SDS_P1;SDS_P2;PMS_P1;PMS_P2;Temp;Humidity;BMP_temperature;BMP_pressure;BME280_temperature;BME280_humidity;BME280_pressure;Samples;Min_cycle;Max_cycle;Signal;HPM_P1;HPM_P2
2022/04/04 00:03:57;;;;;;;18.30;8.55;;;;;;;;;;10309784;28;20073;-69
2022/04/04 00:08:59;;;;;;;17.83;8.10;;;;;;;;;;10310617;28;20293;-69
2022/04/04 00:14:03;;;;;;;13.82;7.70;;;;;;;;;;10310088;28;20074;-68
2022/04/04 00:19:06;;;;;;;15.32;7.57;;;;;;;;;;10309916;28;20055;-68
2022/04/04 00:24:09;;;;;;;17.15;8.68;;;;;;;;;;10308914;28;20134;-69
2022/04/04 00:29:12;;;;;;;16.05;8.75;;;;;;;;;;10310053;28;20370;-69
2022/04/04 00:34:14;;;;;;;14.65;8.20;;;;;;;;;;10309576;28;20051;-69
2022/04/04 00:39:19;;;;;;;13.80;8.27;;;;;;;;;;10310883;28;20042;-69
2022/04/04 00:44:25;;;;;;;17.38;9.25;;;;;;;;;;10349916;28;20050;-68
2022/04/04 00:49:28;;;;;;;14.73;8.75;;;;;;;;;;10364087;28;20054;-69
2022/04/04 00:54:30;;;;;;;15.32;7.97;;;;;;;;;;10322511;28;20091;-68
2022/04/04 00:59:36;;;;;;;15.52;8.23;;;;;;;;;;10309623;28;20043;-69
2022/04/04 01:04:38;;;;;;;14.45;8.20;;;;;;;;;;10334663;28;20066;-69
2022/04/04 01:09:41;;;;;;;14.27;7.68;;;;;;;;;;10350356;28;20081;-69
2022/04/04 01:14:48;;;;;;;18.08;8.23;;;;;;;;;;10350684;28;20222;-69
2022/04/04 01:19:50;;;;;;;16.52;8.32;;;;;;;;;;10344370;28;20045;-69
2022/04/04 01:24:54;;;;;;;17.77;8.30;;;;;;;;;;10308603;28;20074;-69
2022/04/04 01:29:56;;;;;;;15.23;8.18;;;;;;;;;;10309846;28;20057;-69
2022/04/04 01:34:58;;;;;;;15.80;8.50;;;;;;;;;;10312300;28;20047;-69
2022/04/04 01:40:02;;;;;;;16.48;7.78;;;;;;;;;;10315744;28;20054;-69
2022/04/04 01:45:05;;;;;;;15.57;7.82;;;;;;;;;;10317386;28;20081;-69
2022/04/04 01:50:09;;;;;;;15.27;8.00;;;;;;;;;;10316065;28;20054;-69
2022/04/04 01:55:13;;;;;;;14.02;8.43;;;;;;;;;;10329467;28;20247;-69
2022/04/04 02:00:16;;;;;;;13.05;8.30;;;;;;;;;;10341913;28;20054;-69
2022/04/04 02:05:19;;;;;;;15.13;7.25;;;;;;;;;;10314749;28;20388;-69
2022/04/04 02:10:23;;;;;;;16.52;8.32;;;;;;;;;;10314616;28;20266;-69
2022/04/04 02:15:26;;;;;;;14.07;8.57;;;;;;;;;;10314551;28;20375;-69
2022/04/04 02:20:28;;;;;;;14.13;7.47;;;;;;;;;;10314687;28;20050;-69
2022/04/04 02:25:32;;;;;;;11.77;8.20;;;;;;;;;;10314091;28;20345;-69
2022/04/04 02:30:34;;;;;;;13.15;7.72;;;;;;;;;;10313918;28;20089;-69
2022/04/04 02:35:36;;;;;;;14.77;7.82;;;;;;;;;;10313700;28;20058;-69
2022/04/04 02:40:41;;;;;;;12.77;8.27;;;;;;;;;;10313707;28;20044;-69
2022/04/04 02:45:44;;;;;;;15.23;7.93;;;;;;;;;;10312800;28;20074;-69
2022/04/04 02:50:47;;;;;;;19.45;9.63;;;;;;;;;;10313821;28;20283;-69
2022/04/04 03:01:22;;;;;;;14.38;8.43;;;;;;;;;;10261616;28;20269;-69
2022/04/04 03:06:26;;;;;;;14.75;8.27;;;;;;;;;;10325639;28;20089;-68
2022/04/04 03:11:30;;;;;;;15.10;8.55;;;;;;;;;;10339751;28;20066;-69
2022/04/04 03:16:32;;;;;;;17.77;8.48;;;;;;;;;;10325162;28;20372;-69
2022/04/04 03:21:34;;;;;;;12.43;8.20;;;;;;;;;;10339955;28;20341;-69
2022/04/04 03:26:38;;;;;;;13.48;7.38;;;;;;;;;;10311228;28;20065;-69
2022/04/04 03:31:40;;;;;;;20.88;8.88;;;;;;;;;;10350053;28;20320;-69
2022/04/04 03:36:44;;;;;;;14.32;8.35;;;;;;;;;;10313795;28;20046;-69
2022/04/04 03:41:48;;;;;;;16.65;8.15;;;;;;;;;;10311576;28;20069;-69
2022/04/04 03:46:50;;;;;;;13.25;7.65;;;;;;;;;;10311078;28;20117;-68
2022/04/04 03:51:53;;;;;;;11.52;7.53;;;;;;;;;;10311018;28;20074;-69
2022/04/04 03:56:57;;;;;;;9.43;7.72;;;;;;;;;;10309941;28;20238;-68
2022/04/04 04:01:59;;;;;;;12.63;7.45;;;;;;;;;;10308544;28;20327;-69
2022/04/04 04:07:03;;;;;;;10.43;7.10;;;;;;;;;;10345563;28;20306;-69
2022/04/04 04:12:07;;;;;;;13.38;7.90;;;;;;;;;;10350635;28;20272;-69
2022/04/04 04:17:10;;;;;;;10.38;7.53;;;;;;;;;;10315260;28;20062;-68
2022/04/04 04:22:13;;;;;;;11.68;7.53;;;;;;;;;;10303850;28;20047;-69
2022/04/04 04:27:17;;;;;;;13.45;8.73;;;;;;;;;;10271454;28;20054;-69
2022/04/04 04:32:19;;;;;;;12.18;8.10;;;;;;;;;;10308051;28;20043;-68
2022/04/04 04:37:22;;;;;;;13.32;7.85;;;;;;;;;;10316647;28;20069;-69
2022/04/04 04:42:26;;;;;;;15.23;9.27;;;;;;;;;;10351457;28;20405;-69
2022/04/04 04:47:30;;;;;;;11.35;6.78;;;;;;;;;;10350197;28;20288;-69
2022/04/04 04:52:33;;;;;;;10.75;7.40;;;;;;;;;;10349110;28;20073;-68
2022/04/04 04:57:38;;;;;;;13.90;7.78;;;;;;;;;;10330728;28;20090;-69
2022/04/04 05:02:41;;;;;;;9.60;6.45;;;;;;;;;;10330251;28;20054;-68
2022/04/04 05:07:43;;;;;;;10.30;7.03;;;;;;;;;;10328426;28;20046;-69
2022/04/04 05:12:47;;;;;;;10.07;7.20;;;;;;;;;;10323929;28;20283;-69
2022/04/04 05:17:49;;;;;;;9.55;6.93;;;;;;;;;;10337759;28;20404;-69
2022/04/04 05:22:52;;;;;;;10.52;6.50;;;;;;;;;;10314654;28;20053;-69
2022/04/04 05:27:56;;;;;;;14.45;6.65;;;;;;;;;;10321464;28;20085;-68
2022/04/04 05:32:59;;;;;;;8.40;6.63;;;;;;;;;;10336307;28;20039;-68
2022/04/04 05:38:01;;;;;;;10.45;6.22;;;;;;;;;;10315768;28;20043;-68
2022/04/04 05:43:05;;;;;;;17.33;6.18;;;;;;;;;;10322837;28;20050;-69
2022/04/04 05:48:08;;;;;;;12.35;5.78;;;;;;;;;;10351427;28;20116;-69
2022/04/04 05:53:11;;;;;;;8.57;5.82;;;;;;;;;;10356132;28;20046;-67
2022/04/04 05:58:15;;;;;;;10.55;5.40;;;;;;;;;;10352839;28;20054;-69
2022/04/04 06:03:32;;;;;;;8.88;5.10;;;;;;;;;;10355004;28;20081;-69
2022/04/04 06:08:35;;;;;;;6.28;4.82;;;;;;;;;;10320721;28;20053;-70
2022/04/04 06:13:39;;;;;;;10.30;4.82;;;;;;;;;;10319238;28;20061;-69
2022/04/04 06:18:41;;;;;;;8.70;4.53;;;;;;;;;;10351470;28;20046;-69
2022/04/04 06:23:44;;;;;;;11.38;5.60;;;;;;;;;;10346863;28;20053;-68
2022/04/04 06:28:47;;;;;;;12.25;6.88;;;;;;;;;;10352659;28;20050;-69
2022/04/04 06:33:50;;;;;;;10.38;6.45;;;;;;;;;;10331703;28;20352;-72
2022/04/04 06:38:52;;;;;;;21.13;8.13;;;;;;;;;;10353250;28;20341;-68
2022/04/04 06:43:57;;;;;;;13.90;8.13;;;;;;;;;;10317502;28;20054;-69
2022/04/04 06:49:00;;;;;;;;;;;;;;;;;;10346458;28;20431;-68
2022/04/04 06:54:05;;;;;;;14.93;4.50;;;;;;;;;;10314693;28;20120;-68
2022/04/04 06:59:09;;;;;;;10.07;4.68;;;;;;;;;;10314292;28;20069;-69
2022/04/04 07:04:13;;;;;;;15.48;6.32;;;;;;;;;;10332806;28;20065;-69
2022/04/04 07:09:16;;;;;;;29.75;5.30;;;;;;;;;;10353655;28;20038;-68
2022/04/04 07:14:19;;;;;;;9.32;4.05;;;;;;;;;;10311244;28;20081;-67
2022/04/04 07:19:22;;;;;;;9.88;5.43;;;;;;;;;;10311227;28;20051;-68
2022/04/04 07:24:25;;;;;;;10.50;4.95;;;;;;;;;;10336493;28;20039;-68
2022/04/04 07:29:28;;;;;;;22.15;5.70;;;;;;;;;;10348273;28;20065;-68
2022/04/04 07:34:30;;;;;;;17.27;3.35;;;;;;;;;;10324319;28;20060;-68
2022/04/04 07:39:33;;;;;;;11.23;4.03;;;;;;;;;;10335079;28;20046;-67
2022/04/04 07:44:38;;;;;;;8.50;3.33;;;;;;;;;;10308439;28;20046;-69
2022/04/04 07:49:41;;;;;;;16.20;3.03;;;;;;;;;;10311574;28;20247;-69
2022/04/04 07:54:43;;;;;;;17.00;2.63;;;;;;;;;;10312141;28;20043;-68
2022/04/04 07:59:49;;;;;;;17.05;2.83;;;;;;;;;;10311650;28;20131;-68
2022/04/04 08:04:52;;;;;;;23.25;5.25;;;;;;;;;;10315902;28;20050;-70
2022/04/04 08:09:54;;;;;;;19.60;3.55;;;;;;;;;;10309411;28;20051;-69
2022/04/04 08:14:58;;;;;;;17.48;3.08;;;;;;;;;;10310893;28;20346;-68
2022/04/04 08:20:00;;;;;;;10.00;2.80;;;;;;;;;;10310924;28;20413;-68
2022/04/04 08:25:02;;;;;;;15.30;2.47;;;;;;;;;;10340751;28;20057;-69
2022/04/04 08:30:09;;;;;;;15.40;2.47;;;;;;;;;;10349545;28;20058;-68
2022/04/04 08:35:14;;;;;;;24.60;3.42;;;;;;;;;;10339444;28;20046;-71
2022/04/04 08:40:18;;;;;;;11.85;2.60;;;;;;;;;;10331524;28;20346;-67
2022/04/04 08:45:22;;;;;;;11.52;2.80;;;;;;;;;;10314216;28;20046;-70
2022/04/04 08:50:24;;;;;;;37.47;4.80;;;;;;;;;;10322542;28;20098;-69
2022/04/04 08:55:27;;;;;;;34.55;4.25;;;;;;;;;;10318364;28;20317;-70
2022/04/04 09:00:32;;;;;;;18.88;3.22;;;;;;;;;;10322356;28;20380;-68
2022/04/04 09:05:36;;;;;;;35.22;3.85;;;;;;;;;;10352253;28;20077;-68
2022/04/04 09:10:40;;;;;;;20.45;3.13;;;;;;;;;;10332998;28;20076;-67
2022/04/04 09:15:56;;;;;;;19.38;3.00;;;;;;;;;;10317339;28;20050;-68
2022/04/04 09:20:59;;;;;;;36.83;4.25;;;;;;;;;;10316228;28;20047;-69
2022/04/04 09:26:01;;;;;;;21.80;3.60;;;;;;;;;;10316554;28;20187;-69
2022/04/04 09:31:08;;;;;;;23.70;2.92;;;;;;;;;;10319292;28;20049;-69
2022/04/04 09:36:11;;;;;;;29.83;3.92;;;;;;;;;;10341156;28;20259;-68
2022/04/04 09:41:21;;;;;;;25.43;4.23;;;;;;;;;;10329466;28;20074;-68
2022/04/04 09:46:30;;;;;;;15.52;3.75;;;;;;;;;;10367263;28;20030;-70
2022/04/04 09:51:52;;;;;;;24.58;3.55;;;;;;;;;;10355313;28;20049;-70
2022/04/04 09:56:57;;;;;;;33.28;5.50;;;;;;;;;;10317783;28;20042;-71
2022/04/04 10:02:01;;;;;;;25.67;4.90;;;;;;;;;;10318332;28;20098;-70
2022/04/04 10:07:09;;;;;;;37.30;13.93;;;;;;;;;;10316173;28;20357;-70
2022/04/04 10:12:13;;;;;;;34.90;7.05;;;;;;;;;;10321651;28;20300;-69
2022/04/04 10:17:18;;;;;;;22.25;4.78;;;;;;;;;;10317841;28;20047;-71
2022/04/04 10:22:21;;;;;;;24.90;3.97;;;;;;;;;;10348454;28;20053;-67
2022/04/04 10:27:24;;;;;;;20.42;3.67;;;;;;;;;;10335813;28;20058;-68
2022/04/04 10:32:28;;;;;;;31.83;4.32;;;;;;;;;;10346806;28;20352;-69
2022/04/04 10:37:31;;;;;;;31.45;4.18;;;;;;;;;;10343911;28;20049;-68
2022/04/04 10:42:36;;;;;;;28.05;5.28;;;;;;;;;;10349071;28;20041;-69
2022/04/04 10:47:43;;;;;;;45.15;4.90;;;;;;;;;;10341972;28;20056;-69
2022/04/04 10:52:46;;;;;;;49.58;5.05;;;;;;;;;;10348089;28;20060;-67
2022/04/04 10:57:48;;;;;;;58.72;6.55;;;;;;;;;;10328214;28;20046;-70
2022/04/04 11:02:53;;;;;;;32.63;4.13;;;;;;;;;;10329909;28;20042;-70
2022/04/04 11:07:59;;;;;;;45.25;5.47;;;;;;;;;;10367166;28;20042;-70
2022/04/04 11:13:08;;;;;;;30.30;4.53;;;;;;;;;;10356336;28;20060;-70
2022/04/04 11:18:12;;;;;;;14.95;3.40;;;;;;;;;;10367570;28;20050;-67
2022/04/04 11:23:15;;;;;;;;;;;;;;;;;;10353753;28;20046;-70
2022/04/04 11:28:20;;;;;;;25.02;4.25;;;;;;;;;;10330839;28;20202;-67
2022/04/04 11:33:25;;;;;;;36.97;4.28;;;;;;;;;;10326089;28;20031;-70
2022/04/04 11:38:28;;;;;;;19.23;3.83;;;;;;;;;;10313065;28;20386;-69
2022/04/04 11:43:33;;;;;;;20.80;3.72;;;;;;;;;;10340233;28;20306;-70
2022/04/04 11:48:39;;;;;;;;;;;;;;;;;;10329681;28;20384;-70
2022/04/04 11:53:44;;;;;;;19.55;4.18;;;;;;;;;;10300890;28;19918;-70
2022/04/04 11:58:51;;;;;;;35.35;5.47;;;;;;;;;;10332836;28;20400;-67
2022/04/04 12:03:55;;;;;;;20.30;4.35;;;;;;;;;;10332637;28;20058;-67
2022/04/04 12:09:03;;;;;;;34.38;5.15;;;;;;;;;;10339271;28;20093;-70
2022/04/04 12:14:05;;;;;;;28.30;4.75;;;;;;;;;;10323503;28;20097;-67
2022/04/04 12:19:10;;;;;;;37.28;4.90;;;;;;;;;;10310234;28;20121;-68
2022/04/04 12:29:39;;;;;;;34.60;4.72;;;;;;;;;;10341004;28;20043;-68
2022/04/04 12:34:55;;;;;;;41.28;5.75;;;;;;;;;;10349779;28;20050;-68
2022/04/04 12:40:16;;;;;;;50.78;7.18;;;;;;;;;;10330092;28;20089;-69
2022/04/04 12:45:20;;;;;;;48.10;5.88;;;;;;;;;;10337878;28;20042;-71
2022/04/04 12:50:25;;;;;;;50.00;6.07;;;;;;;;;;10339354;28;20056;-68
2022/04/04 12:55:28;;;;;;;49.13;6.38;;;;;;;;;;10310978;28;20081;-68
2022/04/04 13:00:35;;;;;;;59.25;6.20;;;;;;;;;;10350084;28;20357;-69
2022/04/04 13:05:48;;;;;;;72.70;7.03;;;;;;;;;;10356141;28;20065;-67
2022/04/04 13:11:05;;;;;;;51.30;6.68;;;;;;;;;;10358734;28;20072;-67
2022/04/04 13:16:07;;;;;;;61.67;8.23;;;;;;;;;;10300373;28;20056;-67
2022/04/04 13:21:11;;;;;;;40.53;7.45;;;;;;;;;;10339553;28;20326;-70
2022/04/04 13:26:13;;;;;;;28.75;7.05;;;;;;;;;;10333236;28;20354;-70
2022/04/04 13:31:16;;;;;;;42.38;7.90;;;;;;;;;;10317435;28;20046;-70
2022/04/04 13:36:20;;;;;;;48.65;8.88;;;;;;;;;;10316855;28;20234;-70
2022/04/04 13:41:23;;;;;;;48.20;7.55;;;;;;;;;;10318932;28;20053;-67
2022/04/04 13:46:28;;;;;;;45.67;7.35;;;;;;;;;;10317059;28;20041;-72
2022/04/04 13:51:31;;;;;;;57.72;8.02;;;;;;;;;;10327887;28;20047;-68
2022/04/04 13:56:35;;;;;;;71.95;10.85;;;;;;;;;;10335001;28;20050;-66
2022/04/04 14:01:37;;;;;;;60.15;8.70;;;;;;;;;;10318173;28;20055;-66
2022/04/04 14:06:41;;;;;;;41.95;6.47;;;;;;;;;;10335567;28;20058;-67
2022/04/04 14:11:44;;;;;;;48.03;7.37;;;;;;;;;;10338273;28;20050;-69
2022/04/04 14:16:49;;;;;;;51.10;7.35;;;;;;;;;;10335201;28;20059;-66
2022/04/04 14:21:52;;;;;;;;;;;;;;;;;;10314925;28;20058;-69
2022/04/04 14:26:54;;;;;;;50.40;7.60;;;;;;;;;;10327986;28;19933;-66
2022/04/04 14:31:57;;;;;;;59.95;7.35;;;;;;;;;;10339533;28;20048;-66
2022/04/04 14:37:00;;;;;;;41.75;6.70;;;;;;;;;;10327091;28;20042;-67
2022/04/04 14:42:03;;;;;;;80.60;9.20;;;;;;;;;;10320662;28;20054;-70
2022/04/04 14:47:05;;;;;;;73.25;9.18;;;;;;;;;;10327774;28;20054;-70
2022/04/04 14:52:10;;;;;;;54.67;7.78;;;;;;;;;;10315486;28;20238;-69
2022/04/04 14:57:12;;;;;;;46.88;6.85;;;;;;;;;;10332980;28;20253;-66
2022/04/04 15:02:14;;;;;;;62.72;9.13;;;;;;;;;;10314152;28;20043;-70
2022/04/04 15:07:22;;;;;;;72.15;9.02;;;;;;;;;;10350809;28;20062;-67
2022/04/04 15:12:25;;;;;;;43.10;7.07;;;;;;;;;;10353954;28;20381;-69
2022/04/04 15:17:27;;;;;;;47.88;7.80;;;;;;;;;;10351901;28;20082;-69
2022/04/04 15:22:31;;;;;;;59.05;8.40;;;;;;;;;;10318870;28;20364;-69
2022/04/04 15:27:34;;;;;;;67.38;7.15;;;;;;;;;;10322538;28;20045;-68
2022/04/04 15:32:36;;;;;;;37.00;6.63;;;;;;;;;;10330715;28;20219;-70
2022/04/04 15:37:41;;;;;;;64.63;7.75;;;;;;;;;;10313045;28;20046;-68
2022/04/04 15:42:43;;;;;;;64.35;7.75;;;;;;;;;;10313043;28;20055;-67
2022/04/04 15:47:46;;;;;;;65.65;9.95;;;;;;;;;;10348348;28;20060;-67
2022/04/04 15:52:50;;;;;;;67.70;7.57;;;;;;;;;;10350216;28;20245;-67
2022/04/04 15:57:52;;;;;;;59.75;8.70;;;;;;;;;;10352304;28;20313;-66
2022/04/04 16:02:55;;;;;;;86.45;9.25;;;;;;;;;;10347569;28;20058;-67
2022/04/04 16:07:59;;;;;;;94.68;9.18;;;;;;;;;;10350322;28;20065;-66
2022/04/04 16:13:01;;;;;;;70.75;8.65;;;;;;;;;;10351487;28;20044;-67
2022/04/04 16:18:04;;;;;;;83.45;8.95;;;;;;;;;;10351042;28;20057;-69
2022/04/04 16:23:07;;;;;;;45.95;5.82;;;;;;;;;;10318111;28;20051;-71
2022/04/04 16:28:09;;;;;;;89.47;9.30;;;;;;;;;;10330986;28;20050;-70
2022/04/04 16:33:12;;;;;;;68.97;8.63;;;;;;;;;;10351287;28;20069;-68
2022/04/04 16:38:15;;;;;;;97.35;9.98;;;;;;;;;;10322908;28;20066;-70
2022/04/04 16:43:18;;;;;;;91.47;10.75;;;;;;;;;;10331163;28;20347;-70
2022/04/04 16:48:20;;;;;;;96.43;8.93;;;;;;;;;;10311962;28;20042;-68
2022/04/04 16:53:24;;;;;;;104.63;9.98;;;;;;;;;;10309670;28;20046;-67
2022/04/04 16:58:28;;;;;;;64.63;8.82;;;;;;;;;;10310058;28;20057;-71
2022/04/04 17:03:30;;;;;;;73.68;8.68;;;;;;;;;;10345500;28;20066;-68
2022/04/04 17:08:34;;;;;;;55.75;7.80;;;;;;;;;;10371915;28;20050;-71
2022/04/04 17:13:36;;;;;;;72.95;7.88;;;;;;;;;;10347456;28;20137;-70
2022/04/04 17:18:40;;;;;;;76.03;8.68;;;;;;;;;;10321478;28;20043;-71
2022/04/04 17:23:44;;;;;;;82.40;10.23;;;;;;;;;;10318563;28;20060;-68
2022/04/04 17:28:46;;;;;;;47.45;8.30;;;;;;;;;;10318269;28;20218;-70
2022/04/04 17:33:50;;;;;;;81.55;9.07;;;;;;;;;;10342343;28;20056;-67
2022/04/04 17:38:54;;;;;;;79.47;10.65;;;;;;;;;;10357821;28;20317;-68
2022/04/04 17:43:58;;;;;;;64.43;8.98;;;;;;;;;;10358691;28;20221;-68
2022/04/04 17:49:01;;;;;;;66.45;9.45;;;;;;;;;;10355713;28;20042;-69
2022/04/04 17:54:04;;;;;;;68.95;9.68;;;;;;;;;;10356007;28;20047;-70
2022/04/04 17:59:13;;;;;;;63.30;8.77;;;;;;;;;;10357392;28;20589;-68
2022/04/04 18:04:15;;;;;;;51.95;9.85;;;;;;;;;;10329220;28;20063;-69
2022/04/04 18:09:21;;;;;;;69.55;9.95;;;;;;;;;;10315962;28;20057;-70
2022/04/04 18:14:24;;;;;;;57.78;9.93;;;;;;;;;;10316397;28;20038;-70
2022/04/04 18:19:26;;;;;;;62.13;10.13;;;;;;;;;;10349749;28;20065;-70
2022/04/04 18:24:30;;;;;;;45.67;8.77;;;;;;;;;;10356970;28;20061;-68
2022/04/04 18:29:32;;;;;;;44.97;9.07;;;;;;;;;;10356587;28;20365;-67
2022/04/04 18:34:34;;;;;;;72.75;10.52;;;;;;;;;;10316240;28;20042;-69
2022/04/04 18:39:38;;;;;;;65.18;11.23;;;;;;;;;;10325676;28;20092;-68
2022/04/04 18:44:41;;;;;;;47.75;11.45;;;;;;;;;;10275303;28;20051;-68
2022/04/04 18:49:44;;;;;;;68.93;13.23;;;;;;;;;;10276476;28;20398;-68
2022/04/04 18:54:50;;;;;;;53.35;12.48;;;;;;;;;;10354114;28;20049;-69
2022/04/04 18:59:52;;;;;;;46.15;13.55;;;;;;;;;;10324819;28;20263;-68
2022/04/04 19:04:55;;;;;;;53.25;13.57;;;;;;;;;;10314544;28;20475;-67
2022/04/04 19:09:59;;;;;;;55.83;13.15;;;;;;;;;;10313303;28;20054;-68
2022/04/04 19:15:01;;;;;;;49.60;13.27;;;;;;;;;;10319420;28;20042;-68
2022/04/04 19:20:05;;;;;;;42.47;14.57;;;;;;;;;;10314422;28;20047;-67
2022/04/04 19:25:11;;;;;;;44.67;15.77;;;;;;;;;;10325242;28;20050;-68
2022/04/04 19:30:15;;;;;;;36.58;13.70;;;;;;;;;;10367822;28;20329;-69
2022/04/04 19:35:19;;;;;;;28.98;15.23;;;;;;;;;;10351991;28;20334;-68
2022/04/04 19:40:22;;;;;;;35.53;17.70;;;;;;;;;;10349228;28;20049;-69
2022/04/04 19:45:25;;;;;;;36.83;17.27;;;;;;;;;;10353846;28;20054;-68
2022/04/04 19:50:28;;;;;;;27.15;16.52;;;;;;;;;;10335056;28;20058;-69
2022/04/04 19:55:32;;;;;;;34.55;16.67;;;;;;;;;;10331121;28;20046;-68
2022/04/04 20:00:34;;;;;;;31.20;16.83;;;;;;;;;;10311170;28;20051;-68
2022/04/04 20:05:37;;;;;;;25.35;16.90;;;;;;;;;;10324554;28;20292;-69
2022/04/04 20:10:41;;;;;;;27.15;15.50;;;;;;;;;;10321117;28;20042;-70
2022/04/04 20:15:47;;;;;;;21.98;15.48;;;;;;;;;;10312105;28;20057;-69
2022/04/04 20:20:51;;;;;;;24.65;13.95;;;;;;;;;;10310864;28;20046;-69
2022/04/04 20:25:56;;;;;;;19.80;13.55;;;;;;;;;;10331764;28;20031;-69
2022/04/04 20:30:58;;;;;;;26.30;16.73;;;;;;;;;;10326885;28;20342;-69
2022/04/04 20:36:01;;;;;;;22.70;17.52;;;;;;;;;;10316548;28;20035;-70
2022/04/04 20:41:05;;;;;;;19.17;16.50;;;;;;;;;;10309700;28;20078;-70
2022/04/04 20:46:11;;;;;;;20.50;14.80;;;;;;;;;;10310723;28;20057;-70
2022/04/04 20:51:14;;;;;;;21.98;15.95;;;;;;;;;;10335240;28;20042;-69
2022/04/04 20:56:18;;;;;;;22.50;15.77;;;;;;;;;;10310147;28;20042;-67
2022/04/04 21:01:21;;;;;;;18.90;14.13;;;;;;;;;;10309427;28;20046;-68
2022/04/04 21:06:24;;;;;;;19.73;16.50;;;;;;;;;;10330890;28;20132;-69
2022/04/04 21:11:28;;;;;;;17.90;13.45;;;;;;;;;;10325397;28;20338;-68
2022/04/04 21:16:32;;;;;;;23.45;19.48;;;;;;;;;;10309576;28;20050;-69
2022/04/04 21:21:35;;;;;;;20.00;14.82;;;;;;;;;;10308198;28;20047;-67
2022/04/04 21:26:38;;;;;;;21.50;16.50;;;;;;;;;;10309345;28;20043;-69
2022/04/04 21:31:41;;;;;;;23.35;19.08;;;;;;;;;;10320725;28;20384;-66
2022/04/04 21:36:43;;;;;;;22.98;17.52;;;;;;;;;;10337781;28;20042;-70
2022/04/04 21:41:47;;;;;;;21.55;17.02;;;;;;;;;;10336308;28;20238;-69
2022/04/04 21:46:49;;;;;;;26.23;19.42;;;;;;;;;;10349963;28;20046;-67
2022/04/04 21:51:51;;;;;;;23.20;18.25;;;;;;;;;;10314930;28;20330;-69
2022/04/04 21:56:55;;;;;;;23.80;18.27;;;;;;;;;;10316362;28;20063;-69
2022/04/04 22:01:59;;;;;;;24.50;19.48;;;;;;;;;;10316290;28;20061;-69
2022/04/04 22:07:03;;;;;;;25.70;21.07;;;;;;;;;;10332651;28;20117;-67
2022/04/04 22:12:08;;;;;;;22.58;18.48;;;;;;;;;;10329519;28;20046;-70
2022/04/04 22:17:10;;;;;;;28.52;21.27;;;;;;;;;;10340208;28;20066;-70
2022/04/04 22:22:13;;;;;;;25.40;19.70;;;;;;;;;;10314572;28;20054;-68
2022/04/04 22:27:16;;;;;;;25.13;20.55;;;;;;;;;;10326515;28;20057;-66
2022/04/04 22:32:19;;;;;;;26.88;21.08;;;;;;;;;;10315085;28;20066;-69
2022/04/04 22:37:21;;;;;;;28.33;18.67;;;;;;;;;;10314501;28;20039;-68
2022/04/04 22:42:25;;;;;;;26.90;20.42;;;;;;;;;;10329039;28;20038;-69
2022/04/04 22:47:28;;;;;;;27.85;20.55;;;;;;;;;;10326229;28;20050;-67
2022/04/04 22:52:30;;;;;;;29.90;21.85;;;;;;;;;;10339795;28;20047;-69
2022/04/04 22:57:35;;;;;;;27.30;21.08;;;;;;;;;;10314027;28;20054;-68
2022/04/04 23:02:38;;;;;;;22.50;18.10;;;;;;;;;;10318939;28;20329;-70
2022/04/04 23:07:40;;;;;;;23.20;18.65;;;;;;;;;;10351855;28;20249;-69
2022/04/04 23:12:45;;;;;;;25.52;20.02;;;;;;;;;;10347467;28;20101;-70
2022/04/04 23:17:49;;;;;;;24.15;18.30;;;;;;;;;;10313920;28;20043;-70
2022/04/04 23:22:51;;;;;;;25.85;19.23;;;;;;;;;;10347230;28;20211;-69
2022/04/04 23:27:55;;;;;;;27.90;21.27;;;;;;;;;;10348467;28;20578;-69
2022/04/04 23:32:57;;;;;;;25.55;18.83;;;;;;;;;;10338469;28;20047;-69
2022/04/04 23:38:00;;;;;;;26.60;21.50;;;;;;;;;;10313072;28;20261;-69
2022/04/04 23:43:04;;;;;;;26.85;20.08;;;;;;;;;;10327995;28;20046;-69
2022/04/04 23:48:06;;;;;;;23.88;19.08;;;;;;;;;;10318900;28;20077;-69
2022/04/04 23:53:10;;;;;;;24.38;19.40;;;;;;;;;;10348869;28;20046;-69
2022/04/04 23:58:13;;;;;;;22.80;19.20;;;;;;;;;;10311873;28;20282;-69
